This is the latest recevied weather packets stored in our database for station/object W4SKW. If no packets are shown the sender has not sent any weather packets the latest 10 day(s).
| Time | Temp. | Humidity | Pressure | Rain* | Wind** | Luminosity | Snow |
|---|---|---|---|---|---|---|---|
| 1777768878 | 11.67° C | 72% | 1016.7 hPa | 0 mm | - | 0 W/m² | - |
| 1777768574 | 11.67° C | 70% | 1016.7 hPa | 0 mm | - | 0 W/m² | - |
| 1777768271 | 12.22° C | 71% | 1016.7 hPa | 0 mm | - | 1 W/m² | - |
| 1777767968 | 12.22° C | 71% | 1016.5 hPa | 0 mm | - | 2 W/m² | - |
| 1777767665 | 12.78° C | 71% | 1016.5 hPa | 0 mm | - | 4 W/m² | - |
| 1777767361 | 12.78° C | 69% | 1016.4 hPa | 0 mm | - | 6 W/m² | - |
| 1777767058 | 13.33° C | 67% | 1016.4 hPa | 0 mm | - | 8 W/m² | - |
| 1777766755 | 13.89° C | 66% | 1016.2 hPa | 0 mm | - | 10 W/m² | - |
| 1777766453 | 14.44° C | 59% | 1016 hPa | 0 mm | - | 15 W/m² | - |
| 1777766149 | 14.44° C | 59% | 1016.1 hPa | 0 mm | - | 16 W/m² | - |
| 1777765847 | 15.56° C | 57% | 1016.1 hPa | 0 mm | - | 21 W/m² | - |
| 1777765543 | 15.56° C | 53% | 1015.9 hPa | 0 mm | - | 23 W/m² | - |
| 1777765241 | 16.11° C | 49% | 1015.7 hPa | 0 mm | - | 25 W/m² | - |
| 1777764941 | 16.67° C | 51% | 1015.8 hPa | 0 mm | - | 26 W/m² | - |
| 1777764638 | 17.22° C | 41% | 1015.8 hPa | 0 mm | - | 31 W/m² | - |
| 1777764334 | 17.22° C | 41% | 1015.8 hPa | 0 mm | - | 31 W/m² | - |
| 1777764032 | 17.22° C | 44% | 1015.7 hPa | 0 mm | - | 35 W/m² | - |
| 1777763728 | 17.22° C | 44% | 1015.7 hPa | 0 mm | - | 35 W/m² | - |
| 1777763426 | 17.78° C | 40% | 1015.6 hPa | 0 mm | - | 42 W/m² | - |
| 1777763124 | 18.33° C | 45% | 1015.8 hPa | 0 mm | - | 41 W/m² | - |
| 1777762823 | 18.89° C | 39% | 1015.6 hPa | 0 mm | - | 45 W/m² | - |
| 1777762517 | 18.89° C | 40% | 1015.8 hPa | 0 mm | - | 127 W/m² | - |
| 1777762215 | 19.44° C | 38% | 1015.7 hPa | 0 mm | - | 145 W/m² | - |
| 1777761911 | 18.89° C | 39% | 1015.9 hPa | 0 mm | - | 155 W/m² | - |
| 1777761608 | 19.44° C | 38% | 1016 hPa | 0 mm | - | 203 W/m² | - |
* Rain latest hour (hover to see other rain measurements)
** Current wind speed in m/s (hover to see current wind gust speed)